Wye River — WDE3583 — position and weather

sailwx.info

Track history (hours):
 
Tides and Currents Weather Stations Pressure Air Temp Water Temp Dewpoint Dewpoint Depression Visibility Wind Speed Wind Dir Waves Ship Positions

Wye River

Owner: Vane Line Bunkering, Inc., Baltimore, MD. More information available from US FCC via Universal Licensing System and Coast Guard Vessel Documentation Center.

Last reported at 2017-Feb-28 06:31 UTC. Time now 2017-Feb-28 17:22 UTC.
Position N 42°58' W 070°14'.

Length 30 m; draft 4.3 m.

Type: Tow > 200 m length. MMSI: 367341190.

Date/timePositionNaut miles runAvg speedWind from/ knotsBaromVisibWave heightAir tempDewpointWater temp
2017-Feb-28 06:31N 42°58' W 070°14'9 9.5
2017-Feb-28 05:33N 42°49' W 070°16'10 9.6
2017-Feb-28 04:34N 42°40' W 070°17'10 9.6
2017-Feb-28 03:33N 42°30' W 070°19'125 7.4
2017-Feb-27 10:33N 41°09' W 072°27'59 9.5
2017-Feb-27 04:22N 40°54' W 073°42'5 6.2
2017-Feb-27 03:32N 40°50' W 073°47'8 7.7
2017-Feb-27 02:34N 40°47' W 073°56'6 6.1
2017-Feb-27 01:33N 40°42' W 074°01'5 4.7
2017-Feb-27 00:33N 40°46' W 073°60'5 5.0
2017-Feb-26 23:33N 40°51' W 073°57'7 0.2
2017-Feb-25 06:09N 40°57' W 073°54'3 4.6
2017-Feb-25 05:31N 40°55' W 073°55'4 4.5
2017-Feb-25 04:33N 40°51' W 073°57'5 4.5
2017-Feb-25 03:33N 40°47' W 073°60'6 5.9
2017-Feb-25 02:33N 40°41' W 074°02'1 0.8
2017-Feb-25 01:33N 40°40' W 074°02'0 0.0
2017-Feb-25 00:33N 40°40' W 074°02'2 2.5
2017-Feb-24 23:33N 40°38' W 074°03'5 4.8
2017-Feb-24 22:33N 40°33' W 074°02'7 7.1
2017-Feb-24 21:32N 40°28' W 073°55'22 7.2
2017-Feb-24 18:31N 40°06' W 073°58'42 7.1
2017-Feb-24 12:32N 39°26' W 074°12'7 7.4
2017-Feb-24 11:31N 39°20' W 074°18'14 7.3
2017-Feb-24 09:33N 39°09' W 074°31'8 6.9
2017-Feb-24 08:27N 39°04' W 074°38'  
2017-Feb-21 09:21N 32°08' W 080°16'7 8.3
2017-Feb-21 08:33N 32°04' W 080°22'8 8.1
2017-Feb-21 07:33N 32°01' W 080°31'8 7.6
2017-Feb-21 06:33N 31°60' W 080°39'6 5.8
2017-Feb-21 05:33N 31°60' W 080°46'4 4.0
2017-Feb-21 04:33N 32°02' W 080°50'8 7.5
2017-Feb-21 03:33N 32°04' W 080°58'6 6.2
2017-Feb-21 02:33N 32°05' W 081°06'1 0.9
2017-Feb-21 01:33N 32°06' W 081°06'0 0.0
2017-Feb-21 00:33N 32°06' W 081°06'0 0.0
2017-Feb-20 23:34N 32°06' W 081°06'0 0.1
2017-Feb-20 22:33N 32°06' W 081°06'0 0.0
2017-Feb-20 21:33N 32°06' W 081°06'0 0.0
2017-Feb-20 20:33N 32°06' W 081°06'0 0.0
2017-Feb-20 19:33N 32°06' W 081°06'0 0.0
2017-Feb-20 18:33N 32°06' W 081°06'0 0.0
2017-Feb-20 17:33N 32°06' W 081°06'0 0.1
2017-Feb-20 16:33N 32°06' W 081°06'0 0.0
2017-Feb-20 15:33N 32°06' W 081°06'0 0.0
2017-Feb-20 14:33N 32°06' W 081°06'1 1.0
2017-Feb-20 13:33N 32°05' W 081°06'5 4.9
2017-Feb-20 12:33N 32°06' W 080°60'6 6.4
2017-Feb-20 11:33N 32°02' W 080°54'7 6.5
2017-Feb-20 10:33N 31°59' W 080°47'1 0.8
2017-Feb-20 09:34N 31°59' W 080°46'299 7.2
2017-Feb-18 16:07N 27°03' W 079°58'610.5
2017-Feb-18 15:33N 26°57' W 079°58'3410.6
2017-Feb-18 12:20N 26°23' W 079°58'810.3
2017-Feb-18 11:33N 26°15' W 079°59'10 9.9
2017-Feb-18 10:33N 26°05' W 079°59'1010.0
2017-Feb-18 09:33N 25°55' W 080°01'1010.1
2017-Feb-18 08:33N 25°45' W 080°01'  
Track history (hours):
 
Tides and Currents Weather Stations Pressure Air Temp Water Temp Dewpoint Dewpoint Depression Visibility Wind Speed Wind Dir Waves Ship Positions

Wye River

Owner: Vane Line Bunkering, Inc., Baltimore, MD. More information available from US FCC via Universal Licensing System and Coast Guard Vessel Documentation Center.

Last reported at 2017-Feb-28 06:31 UTC. Time now 2017-Feb-28 17:22 UTC.
Position N 42°58' W 070°14'.

Length 30 m; draft 4.3 m.

Type: Tow > 200 m length. MMSI: 367341190.

Date/timePositionNaut miles runAvg speedWind from/ knotsBaromVisibWave heightAir tempDewpointWater temp
2017-Feb-28 06:31N 42°58' W 070°14'9 9.5
2017-Feb-28 05:33N 42°49' W 070°16'10 9.6
2017-Feb-28 04:34N 42°40' W 070°17'10 9.6
2017-Feb-28 03:33N 42°30' W 070°19'125 7.4
2017-Feb-27 10:33N 41°09' W 072°27'59 9.5
2017-Feb-27 04:22N 40°54' W 073°42'5 6.2
2017-Feb-27 03:32N 40°50' W 073°47'8 7.7
2017-Feb-27 02:34N 40°47' W 073°56'6 6.1
2017-Feb-27 01:33N 40°42' W 074°01'5 4.7
2017-Feb-27 00:33N 40°46' W 073°60'5 5.0
2017-Feb-26 23:33N 40°51' W 073°57'7 0.2
2017-Feb-25 06:09N 40°57' W 073°54'3 4.6
2017-Feb-25 05:31N 40°55' W 073°55'4 4.5
2017-Feb-25 04:33N 40°51' W 073°57'5 4.5
2017-Feb-25 03:33N 40°47' W 073°60'6 5.9
2017-Feb-25 02:33N 40°41' W 074°02'1 0.8
2017-Feb-25 01:33N 40°40' W 074°02'0 0.0
2017-Feb-25 00:33N 40°40' W 074°02'2 2.5
2017-Feb-24 23:33N 40°38' W 074°03'5 4.8
2017-Feb-24 22:33N 40°33' W 074°02'7 7.1
2017-Feb-24 21:32N 40°28' W 073°55'22 7.2
2017-Feb-24 18:31N 40°06' W 073°58'42 7.1
2017-Feb-24 12:32N 39°26' W 074°12'7 7.4
2017-Feb-24 11:31N 39°20' W 074°18'14 7.3
2017-Feb-24 09:33N 39°09' W 074°31'8 6.9
2017-Feb-24 08:27N 39°04' W 074°38'  
2017-Feb-21 09:21N 32°08' W 080°16'7 8.3
2017-Feb-21 08:33N 32°04' W 080°22'8 8.1
2017-Feb-21 07:33N 32°01' W 080°31'8 7.6
2017-Feb-21 06:33N 31°60' W 080°39'6 5.8
2017-Feb-21 05:33N 31°60' W 080°46'4 4.0
2017-Feb-21 04:33N 32°02' W 080°50'8 7.5
2017-Feb-21 03:33N 32°04' W 080°58'6 6.2
2017-Feb-21 02:33N 32°05' W 081°06'1 0.9
2017-Feb-21 01:33N 32°06' W 081°06'0 0.0
2017-Feb-21 00:33N 32°06' W 081°06'0 0.0
2017-Feb-20 23:34N 32°06' W 081°06'0 0.1
2017-Feb-20 22:33N 32°06' W 081°06'0 0.0
2017-Feb-20 21:33N 32°06' W 081°06'0 0.0
2017-Feb-20 20:33N 32°06' W 081°06'0 0.0
2017-Feb-20 19:33N 32°06' W 081°06'0 0.0
2017-Feb-20 18:33N 32°06' W 081°06'0 0.0
2017-Feb-20 17:33N 32°06' W 081°06'0 0.1
2017-Feb-20 16:33N 32°06' W 081°06'0 0.0
2017-Feb-20 15:33N 32°06' W 081°06'0 0.0
2017-Feb-20 14:33N 32°06' W 081°06'1 1.0
2017-Feb-20 13:33N 32°05' W 081°06'5 4.9
2017-Feb-20 12:33N 32°06' W 080°60'6 6.4
2017-Feb-20 11:33N 32°02' W 080°54'7 6.5
2017-Feb-20 10:33N 31°59' W 080°47'1 0.8
2017-Feb-20 09:34N 31°59' W 080°46'299 7.2
2017-Feb-18 16:07N 27°03' W 079°58'610.5
2017-Feb-18 15:33N 26°57' W 079°58'3410.6
2017-Feb-18 12:20N 26°23' W 079°58'810.3
2017-Feb-18 11:33N 26°15' W 079°59'10 9.9
2017-Feb-18 10:33N 26°05' W 079°59'1010.0
2017-Feb-18 09:33N 25°55' W 080°01'1010.1
2017-Feb-18 08:33N 25°45' W 080°01'  

Dump ship's entire track history